AEE5MK LGMK-LGAV
Flight info
| Callsign | AEE5MK |
|---|---|
| Flight time | 0h 35m |
| Altitude | 12000 |
| Route | VARIX |
| Aircraft | A20N/M-SDE2E3FGHIRWXY/LB1 |
Departure
| Time | 2026-04-21 14:04 |
|---|---|
| Airport | Mykonos Island National Airport (LGMK) |
Arrival
| Time | 2026-04-21 14:40 |
|---|---|
| Airport | Athens Eleftherios Venizelos International Airport (LGAV) |
| Time | Latitude | Longitude | Altitude | Speed | Heading |
|---|---|---|---|---|---|
| 2026-04-21 13:53 | 37.43543 | 25.34629 | 410 ft | 0 kts | 251° |
| 2026-04-21 14:00 | 37.43546 | 25.34626 | 410 ft | 1 kts | 295° |
| 2026-04-21 14:01 | 37.43554 | 25.34629 | 406 ft | 4 kts | 24° |
| 2026-04-21 14:01 | 37.43619 | 25.34672 | 411 ft | 11 kts | 31° |
| 2026-04-21 14:01 | 37.43702 | 25.34724 | 414 ft | 18 kts | 4° |
| 2026-04-21 14:01 | 37.43872 | 25.34665 | 415 ft | 33 kts | 342° |
| 2026-04-21 14:02 | 37.44134 | 25.34536 | 411 ft | 46 kts | 329° |
| 2026-04-21 14:02 | 37.44291 | 25.34434 | 404 ft | 7 kts | 52° |
| 2026-04-21 14:02 | 37.44291 | 25.34457 | 407 ft | 9 kts | 96° |
| 2026-04-21 14:03 | 37.44261 | 25.34490 | 408 ft | 0 kts | 159° |
| 2026-04-21 14:03 | 37.44260 | 25.34491 | 408 ft | 2 kts | 159° |
| 2026-04-21 14:03 | 37.44068 | 25.34578 | 408 ft | 62 kts | 161° |
| 2026-04-21 14:04 | 37.43628 | 25.34771 | 414 ft | 111 kts | 161° |
| 2026-04-21 14:04 | 37.42737 | 25.35175 | 593 ft | 148 kts | 162° |
| 2026-04-21 14:04 | 37.41764 | 25.35640 | 1212 ft | 152 kts | 162° |
| 2026-04-21 14:04 | 37.40751 | 25.36121 | 1896 ft | 160 kts | 161° |
| 2026-04-21 14:05 | 37.39866 | 25.37043 | 2485 ft | 182 kts | 120° |
| 2026-04-21 14:05 | 37.39839 | 25.38694 | 2925 ft | 207 kts | 67° |
| 2026-04-21 14:05 | 37.40920 | 25.39925 | 3362 ft | 224 kts | 16° |
| 2026-04-21 14:05 | 37.42503 | 25.39797 | 3621 ft | 249 kts | 332° |
| 2026-04-21 14:06 | 37.43808 | 25.38230 | 3966 ft | 270 kts | 296° |
| 2026-04-21 14:06 | 37.44280 | 25.36003 | 4846 ft | 269 kts | 277° |
| 2026-04-21 14:06 | 37.44417 | 25.33628 | 5651 ft | 275 kts | 262° |
| 2026-04-21 14:06 | 37.43700 | 25.31445 | 6796 ft | 268 kts | 239° |
| 2026-04-21 14:07 | 37.42882 | 25.29341 | 7800 ft | 268 kts | 251° |
| 2026-04-21 14:07 | 37.42262 | 25.27122 | 8744 ft | 271 kts | 253° |
| 2026-04-21 14:07 | 37.41680 | 25.24842 | 9666 ft | 274 kts | 254° |
| 2026-04-21 14:07 | 37.41211 | 25.22955 | 10300 ft | 280 kts | 255° |
| 2026-04-21 14:08 | 37.40661 | 25.20720 | 10649 ft | 299 kts | 255° |
| 2026-04-21 14:08 | 37.40034 | 25.18169 | 11061 ft | 317 kts | 254° |
| 2026-04-21 14:08 | 37.39371 | 25.15476 | 11630 ft | 327 kts | 255° |
| 2026-04-21 14:09 | 37.38693 | 25.12730 | 11913 ft | 328 kts | 255° |
| 2026-04-21 14:09 | 37.38058 | 25.10158 | 11960 ft | 325 kts | 255° |
| 2026-04-21 14:09 | 37.37607 | 25.07397 | 11955 ft | 322 kts | 270° |
| 2026-04-21 14:09 | 37.37977 | 25.04646 | 11963 ft | 319 kts | 292° |
| 2026-04-21 14:10 | 37.39162 | 25.02306 | 11973 ft | 320 kts | 310° |
| 2026-04-21 14:10 | 37.40724 | 25.00299 | 11971 ft | 321 kts | 315° |
| 2026-04-21 14:10 | 37.42334 | 24.98361 | 11962 ft | 321 kts | 315° |
| 2026-04-21 14:10 | 37.43956 | 24.96420 | 11964 ft | 321 kts | 315° |
| 2026-04-21 14:11 | 37.45574 | 24.94486 | 11970 ft | 321 kts | 315° |
| 2026-04-21 14:11 | 37.47196 | 24.92553 | 11976 ft | 321 kts | 315° |
| 2026-04-21 14:11 | 37.48827 | 24.90607 | 11970 ft | 322 kts | 315° |
| 2026-04-21 14:11 | 37.50429 | 24.88693 | 11969 ft | 322 kts | 315° |
| 2026-04-21 14:12 | 37.52049 | 24.86759 | 11964 ft | 322 kts | 315° |
| 2026-04-21 14:12 | 37.53674 | 24.84819 | 11972 ft | 322 kts | 315° |
| 2026-04-21 14:12 | 37.55300 | 24.82877 | 11969 ft | 322 kts | 315° |
| 2026-04-21 14:12 | 37.56926 | 24.80935 | 11959 ft | 322 kts | 315° |
| 2026-04-21 14:13 | 37.58552 | 24.78991 | 11947 ft | 322 kts | 315° |
| 2026-04-21 14:13 | 37.60129 | 24.77104 | 11953 ft | 322 kts | 315° |
| 2026-04-21 14:13 | 37.61759 | 24.75154 | 11960 ft | 322 kts | 315° |
| 2026-04-21 14:13 | 37.63378 | 24.73217 | 11946 ft | 322 kts | 315° |
| 2026-04-21 14:14 | 37.65008 | 24.71269 | 11929 ft | 321 kts | 315° |
| 2026-04-21 14:14 | 37.66597 | 24.69369 | 11540 ft | 317 kts | 315° |
| 2026-04-21 14:14 | 37.68202 | 24.67449 | 11123 ft | 311 kts | 315° |
| 2026-04-21 14:14 | 37.69744 | 24.65601 | 10671 ft | 308 kts | 315° |
| 2026-04-21 14:15 | 37.71292 | 24.63740 | 10280 ft | 303 kts | 315° |
| 2026-04-21 14:15 | 37.72791 | 24.61939 | 10090 ft | 292 kts | 315° |
| 2026-04-21 14:15 | 37.74235 | 24.60207 | 9876 ft | 282 kts | 315° |
| 2026-04-21 14:15 | 37.75644 | 24.58516 | 9513 ft | 277 kts | 315° |
| 2026-04-21 14:16 | 37.77039 | 24.56844 | 9106 ft | 274 kts | 315° |
| 2026-04-21 14:16 | 37.78420 | 24.55195 | 8681 ft | 273 kts | 315° |
| 2026-04-21 14:16 | 37.79797 | 24.53556 | 8255 ft | 271 kts | 315° |
| 2026-04-21 14:16 | 37.81170 | 24.51926 | 7841 ft | 270 kts | 315° |
| 2026-04-21 14:17 | 37.82531 | 24.50314 | 7428 ft | 268 kts | 315° |
| 2026-04-21 14:17 | 37.83898 | 24.48699 | 7018 ft | 267 kts | 315° |
| 2026-04-21 14:17 | 37.85145 | 24.46984 | 6615 ft | 264 kts | 307° |
| 2026-04-21 14:17 | 37.86245 | 24.45171 | 6228 ft | 262 kts | 305° |
| 2026-04-21 14:18 | 37.87336 | 24.43322 | 5794 ft | 262 kts | 305° |
| 2026-04-21 14:18 | 37.88042 | 24.42129 | 5518 ft | 261 kts | 305° |
| 2026-04-21 14:18 | 37.89134 | 24.40293 | 5080 ft | 261 kts | 305° |
| 2026-04-21 14:18 | 37.90233 | 24.38460 | 4625 ft | 262 kts | 305° |
| 2026-04-21 14:19 | 37.91338 | 24.36632 | 4182 ft | 262 kts | 305° |
| 2026-04-21 14:19 | 37.92446 | 24.34806 | 3736 ft | 261 kts | 305° |
| 2026-04-21 14:19 | 37.93562 | 24.32978 | 3288 ft | 262 kts | 305° |
| 2026-04-21 14:19 | 37.94674 | 24.31177 | 3029 ft | 255 kts | 305° |
| 2026-04-21 14:20 | 37.95739 | 24.29474 | 2981 ft | 239 kts | 305° |
| 2026-04-21 14:20 | 37.96738 | 24.27887 | 2979 ft | 224 kts | 305° |
| 2026-04-21 14:20 | 37.97705 | 24.26366 | 2990 ft | 222 kts | 305° |
| 2026-04-21 14:20 | 37.98669 | 24.24852 | 2997 ft | 229 kts | 305° |
| 2026-04-21 14:21 | 37.99703 | 24.23228 | 2994 ft | 239 kts | 305° |
| 2026-04-21 14:21 | 38.00751 | 24.21575 | 2995 ft | 241 kts | 305° |
| 2026-04-21 14:21 | 38.01796 | 24.19925 | 2989 ft | 239 kts | 305° |
| 2026-04-21 14:21 | 38.02839 | 24.18278 | 2988 ft | 239 kts | 305° |
| 2026-04-21 14:22 | 38.03878 | 24.16637 | 2991 ft | 239 kts | 305° |
| 2026-04-21 14:22 | 38.04923 | 24.14991 | 2994 ft | 240 kts | 305° |
| 2026-04-21 14:22 | 38.05969 | 24.13334 | 2993 ft | 241 kts | 304° |
| 2026-04-21 14:22 | 38.06725 | 24.11492 | 2988 ft | 233 kts | 278° |
| 2026-04-21 14:23 | 38.06719 | 24.09487 | 2993 ft | 229 kts | 259° |
| 2026-04-21 14:23 | 38.06410 | 24.07528 | 3020 ft | 221 kts | 256° |
| 2026-04-21 14:23 | 38.05924 | 24.05724 | 2999 ft | 215 kts | 239° |
| 2026-04-21 14:23 | 38.05033 | 24.04231 | 2896 ft | 209 kts | 225° |
| 2026-04-21 14:24 | 38.03911 | 24.03081 | 2587 ft | 204 kts | 216° |
| 2026-04-21 14:24 | 38.02778 | 24.02041 | 2312 ft | 197 kts | 217° |
| 2026-04-21 14:24 | 38.01728 | 24.01023 | 2062 ft | 183 kts | 218° |
| 2026-04-21 14:24 | 38.00750 | 24.00083 | 1822 ft | 170 kts | 216° |
| 2026-04-21 14:25 | 37.99826 | 23.99204 | 1588 ft | 161 kts | 216° |
| 2026-04-21 14:25 | 37.98973 | 23.98388 | 1388 ft | 147 kts | 215° |
| 2026-04-21 14:25 | 37.98185 | 23.97635 | 1202 ft | 139 kts | 216° |
| 2026-04-21 14:25 | 37.97428 | 23.96912 | 1032 ft | 139 kts | 217° |
| 2026-04-21 14:26 | 37.96678 | 23.96196 | 837 ft | 130 kts | 214° |
| 2026-04-21 14:26 | 37.95970 | 23.95521 | 672 ft | 126 kts | 218° |
| 2026-04-21 14:26 | 37.95273 | 23.94855 | 506 ft | 125 kts | 218° |
| 2026-04-21 14:26 | 37.94581 | 23.94201 | 353 ft | 122 kts | 217° |
| 2026-04-21 14:27 | 37.93904 | 23.93554 | 433 ft | 129 kts | 217° |
| 2026-04-21 14:27 | 37.93091 | 23.92781 | 839 ft | 166 kts | 217° |
| 2026-04-21 14:27 | 37.92052 | 23.91833 | 1144 ft | 199 kts | 216° |
| 2026-04-21 14:27 | 37.90881 | 23.90686 | 1605 ft | 228 kts | 218° |
| 2026-04-21 14:28 | 37.89543 | 23.89352 | 2055 ft | 260 kts | 217° |
| 2026-04-21 14:28 | 37.88055 | 23.87875 | 2522 ft | 287 kts | 218° |
| 2026-04-21 14:28 | 37.86410 | 23.86288 | 3049 ft | 307 kts | 218° |
| 2026-04-21 14:28 | 37.84619 | 23.84629 | 3472 ft | 329 kts | 217° |
| 2026-04-21 14:29 | 37.82696 | 23.82916 | 3771 ft | 349 kts | 217° |
| 2026-04-21 14:29 | 37.81097 | 23.80728 | 4157 ft | 321 kts | 242° |
| 2026-04-21 14:29 | 37.80608 | 23.78184 | 4403 ft | 288 kts | 273° |
| 2026-04-21 14:29 | 37.81272 | 23.75889 | 4206 ft | 276 kts | 304° |
| 2026-04-21 14:30 | 37.82693 | 23.74335 | 4024 ft | 269 kts | 332° |
| 2026-04-21 14:30 | 37.84424 | 23.73516 | 3994 ft | 264 kts | 340° |
| 2026-04-21 14:30 | 37.86258 | 23.73251 | 3983 ft | 270 kts | 2° |
| 2026-04-21 14:30 | 37.88055 | 23.73932 | 3998 ft | 275 kts | 29° |
| 2026-04-21 14:31 | 37.89576 | 23.75361 | 3994 ft | 276 kts | 33° |
| 2026-04-21 14:31 | 37.91211 | 23.76624 | 4010 ft | 276 kts | 26° |
| 2026-04-21 14:31 | 37.92904 | 23.77754 | 3995 ft | 276 kts | 25° |
| 2026-04-21 14:31 | 37.94616 | 23.78874 | 4001 ft | 276 kts | 25° |
| 2026-04-21 14:32 | 37.96329 | 23.79986 | 3995 ft | 276 kts | 25° |
| 2026-04-21 14:32 | 37.97934 | 23.81035 | 4018 ft | 277 kts | 25° |
| 2026-04-21 14:32 | 37.99638 | 23.82175 | 3988 ft | 277 kts | 25° |
| 2026-04-21 14:32 | 38.01322 | 23.83293 | 3996 ft | 277 kts | 25° |
| 2026-04-21 14:33 | 38.03031 | 23.84428 | 3993 ft | 277 kts | 25° |
| 2026-04-21 14:33 | 38.04698 | 23.85593 | 3983 ft | 267 kts | 31° |
| 2026-04-21 14:33 | 38.06127 | 23.87029 | 3963 ft | 258 kts | 41° |
| 2026-04-21 14:33 | 38.07333 | 23.88680 | 3834 ft | 253 kts | 50° |
| 2026-04-21 14:34 | 38.08032 | 23.89850 | 3728 ft | 252 kts | 53° |
| 2026-04-21 14:34 | 38.09027 | 23.91661 | 3415 ft | 249 kts | 56° |
| 2026-04-21 14:34 | 38.09903 | 23.93582 | 2924 ft | 255 kts | 67° |
| 2026-04-21 14:34 | 38.10431 | 23.96410 | 2676 ft | 240 kts | 91° |
| 2026-04-21 14:35 | 38.10298 | 23.98464 | 2603 ft | 229 kts | 105° |
| 2026-04-21 14:35 | 38.09960 | 23.99758 | 2748 ft | 228 kts | 118° |
| 2026-04-21 14:35 | 38.09031 | 24.01351 | 2952 ft | 225 kts | 139° |
| 2026-04-21 14:35 | 38.07808 | 24.02576 | 3073 ft | 222 kts | 153° |
| 2026-04-21 14:36 | 38.06443 | 24.03377 | 3091 ft | 213 kts | 167° |
| 2026-04-21 14:36 | 38.05052 | 24.03368 | 2924 ft | 195 kts | 196° |
| 2026-04-21 14:36 | 38.03775 | 24.02809 | 2565 ft | 192 kts | 206° |
| 2026-04-21 14:36 | 38.02673 | 24.01917 | 2262 ft | 183 kts | 217° |
| 2026-04-21 14:37 | 38.01695 | 24.00978 | 2059 ft | 171 kts | 217° |
| 2026-04-21 14:37 | 38.00786 | 24.00113 | 1862 ft | 153 kts | 217° |
| 2026-04-21 14:37 | 37.99966 | 23.99333 | 1635 ft | 141 kts | 216° |
| 2026-04-21 14:37 | 37.99224 | 23.98627 | 1456 ft | 126 kts | 216° |
| 2026-04-21 14:38 | 37.98531 | 23.97965 | 1299 ft | 125 kts | 214° |
| 2026-04-21 14:38 | 37.97842 | 23.97308 | 1118 ft | 126 kts | 216° |
| 2026-04-21 14:38 | 37.97138 | 23.96635 | 956 ft | 127 kts | 216° |
| 2026-04-21 14:38 | 37.96432 | 23.95960 | 771 ft | 126 kts | 215° |
| 2026-04-21 14:39 | 37.95726 | 23.95289 | 623 ft | 128 kts | 218° |
| 2026-04-21 14:39 | 37.95017 | 23.94612 | 430 ft | 127 kts | 217° |
| 2026-04-21 14:39 | 37.94320 | 23.93954 | 320 ft | 123 kts | 217° |
| 2026-04-21 14:39 | 37.93705 | 23.93371 | 296 ft | 90 kts | 217° |
| 2026-04-21 14:40 | 37.93368 | 23.93145 | 296 ft | 32 kts | 189° |
| 2026-04-21 14:40 | 37.93252 | 23.93189 | 304 ft | 7 kts | 86° |
| 2026-04-21 14:40 | 37.93286 | 23.93244 | 303 ft | 15 kts | 32° |
| 2026-04-21 14:40 | 37.93436 | 23.93391 | 306 ft | 39 kts | 40° |
| 2026-04-21 14:41 | 37.93633 | 23.93580 | 306 ft | 32 kts | 36° |
| 2026-04-21 14:41 | 37.93808 | 23.93745 | 303 ft | 31 kts | 37° |
| 2026-04-21 14:41 | 37.93979 | 23.93907 | 304 ft | 30 kts | 36° |
| 2026-04-21 14:41 | 37.94145 | 23.94063 | 307 ft | 29 kts | 36° |
| 2026-04-21 14:42 | 37.94307 | 23.94217 | 306 ft | 29 kts | 37° |
| 2026-04-21 14:42 | 37.94464 | 23.94368 | 305 ft | 28 kts | 37° |
| 2026-04-21 14:42 | 37.94619 | 23.94514 | 305 ft | 28 kts | 36° |
| 2026-04-21 14:42 | 37.94645 | 23.94692 | 304 ft | 23 kts | 127° |
| 2026-04-21 14:43 | 37.94549 | 23.94852 | 304 ft | 23 kts | 127° |
| 2026-04-21 14:43 | 37.94456 | 23.95012 | 304 ft | 23 kts | 127° |
| 2026-04-21 14:43 | 37.94359 | 23.95171 | 304 ft | 23 kts | 127° |
| 2026-04-21 14:43 | 37.94265 | 23.95328 | 306 ft | 23 kts | 128° |
| 2026-04-21 14:44 | 37.94184 | 23.95437 | 305 ft | 7 kts | 181° |
| 2026-04-21 14:44 | 37.94138 | 23.95401 | 304 ft | 9 kts | 209° |
| 2026-04-21 14:44 | 37.94114 | 23.95377 | 305 ft | 0 kts | 220° |